Time;durP1;ratioP1;P1;durP2;ratioP2;P2;SDS_P1;SDS_P2;PMS_P1;PMS_P2;Temp;Humidity;BMP_temperature;BMP_pressure;BME280_temperature;BME280_humidity;BME280_pressure;Samples;Min_cycle;Max_cycle;Signal;HPM_P1;HPM_P2
2022/08/14 00:05:04;;;;;;;;;;;;;;;24.19;44.21;99710.34;20363148;27;98566;-74
2022/08/14 00:15:07;;;;;;;;;;;;;;;24.12;44.53;99706.66;20445770;28;100994;-75
2022/08/14 00:25:08;;;;;;;;;;;;;;;24.08;44.76;99710.59;20441874;28;97795;-74
2022/08/14 00:35:09;;;;;;;;;;;;;;;24.02;45.00;99701.44;20455451;28;97863;-74
2022/08/14 00:45:11;;;;;;;;;;;;;;;24.06;44.77;99692.25;20434322;28;100568;-74
2022/08/14 00:55:12;;;;;;;;;;;;;;;24.02;44.86;99687.41;20447466;28;97815;-74
2022/08/14 01:05:22;;;;;;;;;;;;;;;23.91;44.95;99685.81;20446333;28;98976;-74
2022/08/14 01:15:22;;;;;;;;;;;;;;;23.79;45.23;99691.34;20448832;28;98523;-75
2022/08/14 01:25:23;;;;;;;;;;;;;;;23.67;45.46;99689.94;20477803;28;98679;-75
2022/08/14 01:35:27;;;;;;;;;;;;;;;23.65;45.55;99692.72;20448842;28;98194;-74
2022/08/14 01:45:27;;;;;;;;;;;;;;;23.59;45.93;99708.34;20429307;28;101217;-74
2022/08/14 01:55:30;;;;;;;;;;;;;;;23.54;46.09;99700.06;20454635;28;102093;-74
2022/08/14 02:05:30;;;;;;;;;;;;;;;23.46;46.41;99703.44;20463651;28;102221;-74
2022/08/14 02:15:31;;;;;;;;;;;;;;;23.45;46.29;99701.81;20454383;28;97365;-74
2022/08/14 02:25:31;;;;;;;;;;;;;;;23.32;46.56;99702.97;20465758;28;98156;-74
2022/08/14 02:35:31;;;;;;;;;;;;;;;23.25;46.66;99698.44;20455133;28;97974;-74
2022/08/14 02:45:33;;;;;;;;;;;;;;;23.14;47.04;99702.94;20457055;28;99122;-74
2022/08/14 02:55:33;;;;;;;;;;;;;;;23.10;47.31;99709.47;20455454;28;98687;-74
2022/08/14 03:05:34;;;;;;;;;;;;;;;23.06;47.64;99702.84;20458677;28;98085;-74
2022/08/14 03:15:45;;;;;;;;;;;;;;;22.96;47.85;99710.81;20461271;28;99005;-75
2022/08/14 03:25:46;;;;;;;;;;;;;;;22.95;48.06;99726.78;20460376;28;98388;-75
2022/08/14 03:35:46;;;;;;;;;;;;;;;22.77;48.65;99718.84;20464564;28;98677;-74
2022/08/14 03:45:47;;;;;;;;;;;;;;;22.68;48.53;99720.53;20455846;28;99580;-75
2022/08/14 03:55:48;;;;;;;;;;;;;;;22.77;48.54;99710.91;20443037;28;100529;-74
2022/08/14 04:05:49;;;;;;;;;;;;;;;22.77;48.65;99726.75;20457117;28;98541;-73
2022/08/14 04:15:49;;;;;;;;;;;;;;;22.73;48.34;99728.84;20435861;28;97915;-74
2022/08/14 04:25:53;;;;;;;;;;;;;;;22.74;48.25;99730.53;20455435;28;101368;-75
2022/08/14 04:35:54;;;;;;;;;;;;;;;22.72;48.87;99727.19;20436524;28;98982;-75
2022/08/14 04:45:54;;;;;;;;;;;;;;;22.66;49.00;99735.69;20430047;28;99315;-73
2022/08/14 04:55:55;;;;;;;;;;;;;;;22.63;49.30;99750.00;20434357;28;99251;-74
2022/08/14 05:05:56;;;;;;;;;;;;;;;22.67;49.27;99750.53;20447575;28;98634;-74
2022/08/14 05:15:57;;;;;;;;;;;;;;;22.74;48.96;99749.00;20451195;28;100605;-73
2022/08/14 05:26:02;;;;;;;;;;;;;;;22.86;48.89;99742.53;20444450;28;98436;-74
2022/08/14 05:36:05;;;;;;;;;;;;;;;22.88;48.98;99739.75;20449929;28;101149;-74
2022/08/14 05:46:05;;;;;;;;;;;;;;;22.89;49.06;99746.69;20457279;28;98447;-73
2022/08/14 05:56:06;;;;;;;;;;;;;;;22.90;49.23;99744.88;20467437;27;97879;-74
2022/08/14 06:06:06;;;;;;;;;;;;;;;23.00;49.04;99750.97;20489408;28;98691;-75
2022/08/14 06:16:07;;;;;;;;;;;;;;;23.08;49.09;99739.66;20466908;28;101555;-74
2022/08/14 06:26:08;;;;;;;;;;;;;;;23.18;49.12;99727.28;20451310;28;98204;-74
2022/08/14 06:36:09;;;;;;;;;;;;;;;23.29;49.25;99742.06;20491591;27;98217;-74
2022/08/14 06:46:09;;;;;;;;;;;;;;;23.43;48.73;99731.00;20465616;28;98540;-74
2022/08/14 06:56:10;;;;;;;;;;;;;;;23.55;48.90;99717.59;20476455;28;101499;-74
2022/08/14 07:06:13;;;;;;;;;;;;;;;23.63;48.78;99705.28;20472318;28;98607;-74
2022/08/14 07:16:13;;;;;;;;;;;;;;;23.74;48.81;99708.66;20484710;28;98672;-74
2022/08/14 07:26:13;;;;;;;;;;;;;;;23.81;48.58;99710.56;20490002;28;97864;-74
2022/08/14 07:36:15;;;;;;;;;;;;;;;23.91;48.63;99707.81;20481253;28;98374;-74
2022/08/14 07:46:15;;;;;;;;;;;;;;;24.02;48.53;99704.09;20483049;28;97750;-73
2022/08/14 07:56:16;;;;;;;;;;;;;;;24.09;48.53;99701.69;20478871;28;98029;-74
2022/08/14 08:06:18;;;;;;;;;;;;;;;24.18;48.24;99702.56;20466248;28;106154;-74
2022/08/14 08:16:22;;;;;;;;;;;;;;;24.29;48.56;99695.22;20458750;28;98627;-73
2022/08/14 08:26:28;;;;;;;;;;;;;;;24.41;48.70;99700.22;20500229;28;101214;-74
2022/08/14 08:36:38;;;;;;;;;;;;;;;24.50;48.36;99694.00;20519866;28;97404;-72
2022/08/14 08:46:39;;;;;;;;;;;;;;;24.66;47.58;99685.34;20496516;28;97357;-74
2022/08/14 08:56:40;;;;;;;;;;;;;;;24.76;47.74;99677.25;20473427;28;98432;-73
2022/08/14 09:06:49;;;;;;;;;;;;;;;24.86;47.36;99674.47;20502556;28;99775;-74
2022/08/14 09:16:50;;;;;;;;;;;;;;;24.98;46.68;99665.25;20500243;28;97098;-74
2022/08/14 09:26:51;;;;;;;;;;;;;;;25.07;46.66;99663.44;20501408;27;99666;-74
2022/08/14 09:37:10;;;;;;;;;;;;;;;25.17;46.07;99650.91;20498711;27;99011;-72
2022/08/14 09:47:11;;;;;;;;;;;;;;;25.27;45.56;99634.84;20471365;28;101605;-73
2022/08/14 09:57:31;;;;;;;;;;;;;;;25.41;44.53;99631.56;20485967;28;99928;-70
2022/08/14 10:07:34;;;;;;;;;;;;;;;25.52;43.67;99624.28;20488972;28;100843;-70
2022/08/14 10:17:34;;;;;;;;;;;;;;;25.62;42.95;99626.75;20482617;28;98619;-70
2022/08/14 10:27:34;;;;;;;;;;;;;;;25.78;40.15;99623.25;20465409;28;99510;-72
2022/08/14 10:37:39;;;;;;;;;;;;;;;25.91;40.45;99615.63;20476585;28;97749;-72
2022/08/14 10:47:39;;;;;;;;;;;;;;;26.04;43.38;99602.66;20488693;28;98633;-71
2022/08/14 10:57:50;;;;;;;;;;;;;;;26.19;39.52;99604.63;20494759;28;98464;-72
2022/08/14 11:07:53;;;;;;;;;;;;;;;26.29;41.82;99601.78;20505002;28;98343;-72
2022/08/14 11:17:55;;;;;;;;;;;;;;;26.52;39.75;99581.44;20467973;28;99761;-71
2022/08/14 11:27:56;;;;;;;;;;;;;;;26.65;39.08;99572.09;20475643;28;97903;-72
2022/08/14 11:38:00;;;;;;;;;;;;;;;26.63;38.44;99556.31;20482414;28;101277;-72
2022/08/14 11:48:12;;;;;;;;;;;;;;;26.64;36.52;99543.88;20482948;28;98413;-72
2022/08/14 11:58:15;;;;;;;;;;;;;;;26.68;36.72;99530.09;20486349;28;98537;-72
2022/08/14 12:08:15;;;;;;;;;;;;;;;26.73;37.67;99521.56;20507752;28;97730;-72
2022/08/14 12:18:16;;;;;;;;;;;;;;;26.80;37.32;99514.56;20512035;28;101285;-72
2022/08/14 12:28:17;;;;;;;;;;;;;;;26.87;36.48;99509.38;20492714;28;98678;-73
2022/08/14 12:38:18;;;;;;;;;;;;;;;26.94;35.95;99498.88;20501060;28;98338;-73
2022/08/14 12:48:19;;;;;;;;;;;;;;;26.98;35.89;99484.25;20488425;28;98645;-72
2022/08/14 12:58:20;;;;;;;;;;;;;;;27.09;34.59;99488.28;20488373;28;97284;-71
2022/08/14 13:08:21;;;;;;;;;;;;;;;27.13;34.91;99470.97;20493459;28;97292;-72
2022/08/14 13:18:22;;;;;;;;;;;;;;;27.20;34.52;99455.97;20502770;28;99155;-73
2022/08/14 13:28:26;;;;;;;;;;;;;;;27.27;34.86;99450.72;20500641;28;97783;-73
2022/08/14 13:38:27;;;;;;;;;;;;;;;27.37;35.40;99450.47;20495507;28;97989;-72
2022/08/14 13:48:27;;;;;;;;;;;;;;;27.40;35.56;99436.81;20478112;28;99039;-70
2022/08/14 13:58:33;;;;;;;;;;;;;;;27.77;33.94;99437.72;20480210;28;98079;-73
2022/08/14 14:08:36;;;;;;;;;;;;;;;27.66;33.91;99422.25;20488077;28;98802;-71
2022/08/14 14:18:37;;;;;;;;;;;;;;;27.65;33.83;99418.78;20475379;28;98095;-71
2022/08/14 14:28:40;;;;;;;;;;;;;;;27.64;34.55;99412.63;20470953;28;98704;-71
2022/08/14 14:38:43;;;;;;;;;;;;;;;27.68;35.07;99414.94;20480481;28;101349;-70
2022/08/14 14:48:44;;;;;;;;;;;;;;;27.71;34.87;99398.59;20475406;28;98408;-70
2022/08/14 14:58:45;;;;;;;;;;;;;;;27.77;35.36;99384.53;20471982;28;98565;-72
2022/08/14 15:08:45;;;;;;;;;;;;;;;27.84;34.49;99388.09;20469336;28;97605;-70
2022/08/14 15:18:46;;;;;;;;;;;;;;;27.93;34.62;99392.31;20475176;28;98472;-69
2022/08/14 15:28:47;;;;;;;;;;;;;;;28.00;34.87;99395.03;20465754;28;100568;-71
2022/08/14 15:38:49;;;;;;;;;;;;;;;28.09;34.25;99393.94;20479781;28;98504;-71
2022/08/14 15:48:50;;;;;;;;;;;;;;;28.09;34.47;99391.28;20480852;28;97710;-71
2022/08/14 15:58:50;;;;;;;;;;;;;;;28.11;34.81;99378.63;20453985;28;101370;-70
2022/08/14 16:08:51;;;;;;;;;;;;;;;28.13;35.14;99385.59;20459501;28;98231;-68
2022/08/14 16:18:57;;;;;;;;;;;;;;;28.19;34.79;99374.19;20460978;28;99232;-71
2022/08/14 16:29:01;;;;;;;;;;;;;;;28.33;34.49;99370.63;20489525;27;99545;-71
2022/08/14 16:39:03;;;;;;;;;;;;;;;28.26;35.03;99383.88;20496400;28;98264;-71
2022/08/14 16:49:04;;;;;;;;;;;;;;;28.25;35.35;99389.38;20490163;28;99340;-71
2022/08/14 16:59:08;;;;;;;;;;;;;;;28.24;35.14;99382.41;20487777;28;98369;-71
2022/08/14 17:09:22;;;;;;;;;;;;;;;28.22;35.78;99379.94;20465898;28;98703;-73
2022/08/14 17:19:23;;;;;;;;;;;;;;;28.24;35.71;99388.53;20479348;28;97949;-71
2022/08/14 17:29:27;;;;;;;;;;;;;;;28.20;35.22;99395.28;20473813;28;97799;-72
2022/08/14 17:39:27;;;;;;;;;;;;;;;28.19;35.37;99404.28;20474208;28;98705;-72
2022/08/14 17:49:29;;;;;;;;;;;;;;;28.18;35.07;99405.28;20484019;28;98016;-72
2022/08/14 17:59:31;;;;;;;;;;;;;;;28.16;35.34;99412.66;20474188;27;99068;-71
2022/08/14 18:09:32;;;;;;;;;;;;;;;28.16;35.05;99419.78;20484840;28;100576;-72
2022/08/14 18:19:33;;;;;;;;;;;;;;;28.13;35.06;99413.00;20489060;28;97546;-71
2022/08/14 18:29:38;;;;;;;;;;;;;;;28.11;35.66;99399.91;20495052;28;99689;-71
2022/08/14 18:39:44;;;;;;;;;;;;;;;28.10;35.78;99400.09;20474763;28;98441;-71
2022/08/14 18:49:56;;;;;;;;;;;;;;;28.01;35.88;99414.50;20461168;28;100933;-72
2022/08/14 18:59:57;;;;;;;;;;;;;;;28.00;36.37;99418.97;20471364;28;98140;-72
2022/08/14 19:10:04;;;;;;;;;;;;;;;27.91;36.51;99426.25;20476181;28;97937;-71
2022/08/14 19:20:08;;;;;;;;;;;;;;;27.84;36.89;99425.34;20443799;28;97955;-72
2022/08/14 19:30:14;;;;;;;;;;;;;;;27.74;37.18;99425.63;20419957;28;98424;-72
2022/08/14 19:40:27;;;;;;;;;;;;;;;27.63;37.16;99418.13;20474859;28;98028;-71
2022/08/14 19:50:31;;;;;;;;;;;;;;;27.52;37.41;99422.09;20489403;28;101202;-72
2022/08/14 20:00:32;;;;;;;;;;;;;;;27.41;38.13;99423.38;20487194;28;98303;-72
2022/08/14 20:10:36;;;;;;;;;;;;;;;27.31;38.38;99418.28;20492051;28;97917;-72
2022/08/14 20:20:38;;;;;;;;;;;;;;;27.21;38.79;99425.72;20488123;28;98033;-71
2022/08/14 20:30:38;;;;;;;;;;;;;;;27.12;39.01;99419.69;20487136;28;97817;-71
2022/08/14 20:40:40;;;;;;;;;;;;;;;27.04;39.17;99425.06;20485946;28;98328;-71
2022/08/14 20:50:43;;;;;;;;;;;;;;;27.00;39.61;99421.09;20485379;28;98312;-71
2022/08/14 21:00:44;;;;;;;;;;;;;;;26.95;39.86;99432.28;20494254;28;97685;-71
2022/08/14 21:10:45;;;;;;;;;;;;;;;26.88;40.08;99438.47;20484643;28;97783;-72
2022/08/14 21:20:46;;;;;;;;;;;;;;;26.83;39.88;99445.16;20484392;28;98116;-71
2022/08/14 21:30:46;;;;;;;;;;;;;;;26.78;40.56;99449.34;20500375;28;97006;-72
2022/08/14 21:40:48;;;;;;;;;;;;;;;26.71;40.28;99445.72;20507470;27;97289;-69
2022/08/14 21:50:52;;;;;;;;;;;;;;;26.62;40.83;99444.97;20504091;28;98429;-71
2022/08/14 22:00:53;;;;;;;;;;;;;;;26.59;40.99;99440.84;20485686;28;100404;-71
2022/08/14 22:10:55;;;;;;;;;;;;;;;26.45;41.26;99445.13;20478817;28;101161;-72
2022/08/14 22:20:55;;;;;;;;;;;;;;;26.45;41.08;99454.88;20505189;28;98453;-72
2022/08/14 22:30:56;;;;;;;;;;;;;;;26.42;41.36;99449.94;20501971;28;98606;-73
2022/08/14 22:40:56;;;;;;;;;;;;;;;26.37;41.22;99439.84;20495560;27;99947;-71
2022/08/14 22:50:57;;;;;;;;;;;;;;;26.31;41.70;99436.06;20490018;27;97640;-71
2022/08/14 23:00:59;;;;;;;;;;;;;;;26.23;42.04;99420.19;20488639;28;99278;-72
2022/08/14 23:11:01;;;;;;;;;;;;;;;26.15;42.10;99420.25;20480441;28;98310;-72
2022/08/14 23:21:02;;;;;;;;;;;;;;;26.09;42.42;99420.97;20496162;28;98448;-73
2022/08/14 23:31:03;;;;;;;;;;;;;;;25.92;43.09;99415.69;20475780;28;98420;-72
2022/08/14 23:41:10;;;;;;;;;;;;;;;25.91;42.92;99410.56;20489106;28;97929;-73
2022/08/14 23:51:12;;;;;;;;;;;;;;;25.85;43.08;99415.59;20482818;28;98728;-73
